createdAt,value
2018-04-16T00:00:11.574Z,19.10
2018-04-16T00:01:11.606Z,19.20
2018-04-16T00:02:11.642Z,19.29
2018-04-16T00:03:11.680Z,19.28
2018-04-16T00:04:11.713Z,19.10
2018-04-16T00:05:11.750Z,19.18
2018-04-16T00:06:11.788Z,19.20
2018-04-16T00:07:11.822Z,19.09
2018-04-16T00:08:11.858Z,19.20
2018-04-16T00:09:11.895Z,19.10
2018-04-16T00:10:11.927Z,19.09
2018-04-16T00:11:11.964Z,19.20
2018-04-16T00:12:12.001Z,19.20
2018-04-16T00:13:12.035Z,19.58
2018-04-16T00:14:12.068Z,19.29
2018-04-16T00:15:12.107Z,19.38
2018-04-16T00:16:12.141Z,19.68
2018-04-16T00:17:12.180Z,19.47
2018-04-16T00:18:12.215Z,19.47
2018-04-16T00:19:12.248Z,19.77
2018-04-16T00:20:12.283Z,19.67
2018-04-16T00:21:12.322Z,19.67
2018-04-16T00:22:12.354Z,19.67
2018-04-16T00:23:12.389Z,19.57
2018-04-16T00:24:12.428Z,19.57
2018-04-16T00:25:12.459Z,19.29
2018-04-16T00:26:12.496Z,19.67
2018-04-16T00:27:12.534Z,19.20
2018-04-16T00:28:12.566Z,19.38
2018-04-16T00:29:12.603Z,19.20
2018-04-16T00:30:12.640Z,19.10
2018-04-16T00:31:12.672Z,19.00
2018-04-16T00:32:12.709Z,19.29
2018-04-16T00:33:12.750Z,19.10
2018-04-16T00:34:12.778Z,19.10
2018-04-16T00:35:12.815Z,18.80
2018-04-16T00:36:12.857Z,18.80
2018-04-16T00:37:12.886Z,18.80
2018-04-16T00:38:12.922Z,18.90
2018-04-16T00:39:12.960Z,18.80
2018-04-16T00:40:12.992Z,18.80
2018-04-16T00:41:13.027Z,18.70
2018-04-16T00:42:13.067Z,18.52
2018-04-16T00:43:13.100Z,18.90
2018-04-16T00:44:13.135Z,18.62
2018-04-16T00:45:13.171Z,18.71
2018-04-16T00:46:13.206Z,18.90
2018-04-16T00:47:13.988Z,18.62
2018-04-16T00:48:13.280Z,18.71
2018-04-16T00:49:13.313Z,18.70
2018-04-16T00:50:13.349Z,18.80
2018-04-16T00:51:13.388Z,18.71
2018-04-16T00:52:13.418Z,18.80
2018-04-16T00:53:13.482Z,19.20
2018-04-16T00:54:13.490Z,18.80
2018-04-16T00:55:13.991Z,18.99
2018-04-16T00:56:13.562Z,18.99
2018-04-16T00:57:13.596Z,19.10
2018-04-16T00:58:13.634Z,18.80
2018-04-16T00:59:14.492Z,18.80
2018-04-16T01:00:13.709Z,18.90
2018-04-16T01:01:13.739Z,18.70
2018-04-16T01:02:13.775Z,18.71
2018-04-16T01:03:13.809Z,18.71
2018-04-16T01:04:13.846Z,18.90
2018-04-16T01:05:13.882Z,19.09
2018-04-16T01:06:13.921Z,19.29
2018-04-16T01:07:14.493Z,19.18
2018-04-16T01:08:13.988Z,19.10
2018-04-16T01:09:14.027Z,18.99
2018-04-16T01:10:14.060Z,18.90
2018-04-16T01:11:14.094Z,19.20
2018-04-16T01:12:14.132Z,19.10
2018-04-16T01:13:14.171Z,19.10
2018-04-16T01:14:14.816Z,19.29
2018-04-16T01:15:14.238Z,19.10
2018-04-16T01:16:14.275Z,19.58
2018-04-16T01:17:14.305Z,19.48
2018-04-16T01:18:14.349Z,19.96
2018-04-16T01:19:14.379Z,19.48
2018-04-16T01:20:14.415Z,19.77
2018-04-16T01:21:14.449Z,19.96
2018-04-16T01:22:14.489Z,19.68
2018-04-16T01:23:14.521Z,19.68
2018-04-16T01:24:14.621Z,19.76
2018-04-16T01:25:14.644Z,19.87
2018-04-16T01:26:14.631Z,20.06
2018-04-16T01:27:14.666Z,19.96
2018-04-16T01:28:14.703Z,19.96
2018-04-16T01:29:14.736Z,20.16
2018-04-16T01:30:15.506Z,20.16
2018-04-16T01:31:15.509Z,19.87
2018-04-16T01:32:15.510Z,20.15
2018-04-16T01:33:14.885Z,19.96
2018-04-16T01:34:15.508Z,20.05
2018-04-16T01:35:14.952Z,19.77
2018-04-16T01:36:14.987Z,19.77
2018-04-16T01:37:15.022Z,19.77
2018-04-16T01:38:15.056Z,19.76
2018-04-16T01:39:15.095Z,19.86
2018-04-16T01:40:15.130Z,19.96
2018-04-16T01:41:15.165Z,19.77
2018-04-16T01:42:15.208Z,19.68
2018-04-16T01:43:15.236Z,19.58
2018-04-16T01:44:15.271Z,19.76
2018-04-16T01:45:15.308Z,19.48
2018-04-16T01:46:15.352Z,19.68
2018-04-16T01:47:15.383Z,19.68
2018-04-16T01:48:15.415Z,19.48
2018-04-16T01:49:15.451Z,19.38
2018-04-16T01:50:15.487Z,19.20
2018-04-16T01:51:15.519Z,19.18
2018-04-16T01:52:15.558Z,19.20
2018-04-16T01:53:15.594Z,19.20
2018-04-16T01:54:15.630Z,19.10
2018-04-16T01:55:15.664Z,19.10
2018-04-16T01:56:15.702Z,19.20
2018-04-16T01:57:15.735Z,19.10
2018-04-16T01:58:15.771Z,19.29
2018-04-16T01:59:15.805Z,19.10
2018-04-16T02:00:15.843Z,19.20
2018-04-16T02:01:15.878Z,19.10
2018-04-16T02:02:15.912Z,19.20
2018-04-16T02:03:15.950Z,18.90
2018-04-16T02:04:15.985Z,18.90
2018-04-16T02:05:16.019Z,18.90
2018-04-16T02:06:16.055Z,18.90
2018-04-16T02:07:17.026Z,19.10
2018-04-16T02:08:16.842Z,19.10
2018-04-16T02:09:16.161Z,18.90
2018-04-16T02:10:16.198Z,19.00
2018-04-16T02:11:17.024Z,19.10
2018-04-16T02:12:16.268Z,19.10
2018-04-16T02:13:18.852Z,18.71
2018-04-16T02:14:16.337Z,19.20
2018-04-16T02:15:16.375Z,18.90
2018-04-16T02:16:16.410Z,18.80
2018-04-16T02:17:16.443Z,18.80
2018-04-16T02:18:16.483Z,18.80
2018-04-16T02:19:16.516Z,18.80
2018-04-16T02:20:16.552Z,18.71
2018-04-16T02:21:16.588Z,18.90
2018-04-16T02:22:16.623Z,18.71
2018-04-16T02:23:16.657Z,18.42
2018-04-16T02:24:16.694Z,18.42
2018-04-16T02:25:16.730Z,18.90
2018-04-16T02:26:16.762Z,18.80
2018-04-16T02:27:16.801Z,19.10
2018-04-16T02:28:17.534Z,19.00
2018-04-16T02:29:16.870Z,19.00
2018-04-16T02:30:16.907Z,18.80
2018-04-16T02:31:16.944Z,18.80
2018-04-16T02:32:16.985Z,18.90
2018-04-16T02:33:17.015Z,18.90
2018-04-16T02:34:17.051Z,19.00
2018-04-16T02:35:17.084Z,18.90
2018-04-16T02:36:17.125Z,18.80
2018-04-16T02:37:17.157Z,18.52
2018-04-16T02:38:17.197Z,18.52
2018-04-16T02:39:17.228Z,18.90
2018-04-16T02:40:17.265Z,18.62
2018-04-16T02:41:17.299Z,18.52
2018-04-16T02:42:17.336Z,18.71
2018-04-16T02:43:17.371Z,18.90
2018-04-16T02:44:17.405Z,18.52
2018-04-16T02:45:17.442Z,18.62
2018-04-16T02:46:18.044Z,18.52
2018-04-16T02:47:17.512Z,18.52
2018-04-16T02:48:18.043Z,18.52
2018-04-16T02:49:17.585Z,18.80
2018-04-16T02:50:17.619Z,18.71
2018-04-16T02:51:17.656Z,18.23
2018-04-16T02:52:17.695Z,18.32
2018-04-16T02:53:17.726Z,18.99
2018-04-16T02:54:17.765Z,18.62
2018-04-16T02:55:17.796Z,18.23
2018-04-16T02:56:17.834Z,18.80
2018-04-16T02:57:17.870Z,18.32
2018-04-16T02:58:18.545Z,18.23
2018-04-16T02:59:17.939Z,18.23
2018-04-16T03:00:17.977Z,18.80
2018-04-16T03:01:18.012Z,18.80
2018-04-16T03:02:18.047Z,18.62
2018-04-16T03:03:18.083Z,18.71
2018-04-16T03:04:18.116Z,18.32
2018-04-16T03:05:18.154Z,18.71
2018-04-16T03:06:18.190Z,18.62
2018-04-16T03:07:18.223Z,18.71
2018-04-16T03:08:18.261Z,18.71
2018-04-16T03:09:18.297Z,18.62
2018-04-16T03:10:18.331Z,18.80
2018-04-16T03:11:18.368Z,18.80
2018-04-16T03:12:18.405Z,18.62
2018-04-16T03:13:18.442Z,18.62
2018-04-16T03:14:18.476Z,18.80
2018-04-16T03:15:18.513Z,18.80
2018-04-16T03:16:18.548Z,18.71
2018-04-16T03:17:19.057Z,18.62
2018-04-16T03:18:18.618Z,18.62
2018-04-16T03:19:19.559Z,19.10
2018-04-16T03:20:18.691Z,18.80
2018-04-16T03:21:18.726Z,18.90
2018-04-16T03:22:19.557Z,18.80
2018-04-16T03:23:18.796Z,18.80
2018-04-16T03:24:18.832Z,19.10
2018-04-16T03:25:18.867Z,18.90
2018-04-16T03:26:18.903Z,18.90
2018-04-16T03:27:19.563Z,19.20
2018-04-16T03:28:18.973Z,18.71
2018-04-16T03:29:19.562Z,18.90
2018-04-16T03:30:19.046Z,18.71
2018-04-16T03:31:19.080Z,18.71
2018-04-16T03:32:19.123Z,19.20
2018-04-16T03:33:19.166Z,18.71
2018-04-16T03:34:19.188Z,19.48
2018-04-16T03:35:19.224Z,19.29
2018-04-16T03:36:19.260Z,18.90
2018-04-16T03:37:19.294Z,19.20
2018-04-16T03:38:19.329Z,18.90
2018-04-16T03:39:19.364Z,18.90
2018-04-16T03:40:20.082Z,19.10
2018-04-16T03:41:19.438Z,18.90
2018-04-16T03:42:19.474Z,19.00
2018-04-16T03:43:19.508Z,19.00
2018-04-16T03:44:19.546Z,19.29
2018-04-16T03:45:19.662Z,19.20
2018-04-16T03:46:19.661Z,19.10
2018-04-16T03:47:20.069Z,18.71
2018-04-16T03:48:19.688Z,18.90
2018-04-16T03:49:20.070Z,18.80
2018-04-16T03:50:19.759Z,18.62
2018-04-16T03:51:19.799Z,19.00
2018-04-16T03:52:19.829Z,18.71
2018-04-16T03:53:19.867Z,18.90
2018-04-16T03:54:19.899Z,18.52
2018-04-16T03:55:20.893Z,18.71
2018-04-16T03:56:19.973Z,19.20
2018-04-16T03:57:20.007Z,19.29
2018-04-16T03:58:20.041Z,18.80
2018-04-16T03:59:20.080Z,18.90
2018-04-16T04:00:20.113Z,19.20
2018-04-16T04:01:20.189Z,18.71
2018-04-16T04:02:20.182Z,19.10
2018-04-16T04:03:20.219Z,18.80
2018-04-16T04:04:20.255Z,18.80
2018-04-16T04:05:20.294Z,18.71
2018-04-16T04:06:21.578Z,19.20
2018-04-16T04:07:20.362Z,19.20
2018-04-16T04:08:20.400Z,18.71
2018-04-16T04:09:21.081Z,19.10
2018-04-16T04:10:20.468Z,18.80
2018-04-16T04:11:20.505Z,19.00
2018-04-16T04:12:20.540Z,18.71
2018-04-16T04:13:20.578Z,18.71
2018-04-16T04:14:20.615Z,19.10
2018-04-16T04:15:20.647Z,19.20
2018-04-16T04:16:20.683Z,19.38
2018-04-16T04:17:20.720Z,19.10
2018-04-16T04:18:20.754Z,19.20
2018-04-16T04:19:20.789Z,19.20
2018-04-16T04:20:20.827Z,19.29
2018-04-16T04:21:20.862Z,18.99
2018-04-16T04:22:20.898Z,19.10
2018-04-16T04:23:20.938Z,19.00
2018-04-16T04:24:20.967Z,19.20
2018-04-16T04:25:21.003Z,19.20
2018-04-16T04:26:21.038Z,19.10
2018-04-16T04:27:21.075Z,19.68
2018-04-16T04:28:21.110Z,19.10
2018-04-16T04:29:21.149Z,19.10
2018-04-16T04:30:21.202Z,19.20
2018-04-16T04:31:21.216Z,19.20
2018-04-16T04:32:21.252Z,19.20
2018-04-16T04:33:21.289Z,19.29
2018-04-16T04:34:21.325Z,19.28
2018-04-16T04:35:21.359Z,19.10
2018-04-16T04:36:21.400Z,19.58
2018-04-16T04:37:22.092Z,19.10
2018-04-16T04:38:22.094Z,19.10
2018-04-16T04:39:21.501Z,19.58
2018-04-16T04:40:21.540Z,19.00
2018-04-16T04:41:22.097Z,19.00
2018-04-16T04:42:21.611Z,19.29
2018-04-16T04:43:21.644Z,19.10
2018-04-16T04:44:21.681Z,19.10
2018-04-16T04:45:21.718Z,19.10
2018-04-16T04:46:21.750Z,19.10
2018-04-16T04:47:21.787Z,19.20
2018-04-16T04:48:21.823Z,19.10
2018-04-16T04:49:21.858Z,19.29
2018-04-16T04:50:21.893Z,19.00
2018-04-16T04:51:21.929Z,18.71
2018-04-16T04:52:21.965Z,19.29
2018-04-16T04:53:22.007Z,18.80
2018-04-16T04:54:22.037Z,18.90
2018-04-16T04:55:22.071Z,19.29
2018-04-16T04:56:22.109Z,18.90
2018-04-16T04:57:22.144Z,19.00
2018-04-16T04:58:22.177Z,18.99
2018-04-16T04:59:22.217Z,19.29
2018-04-16T05:00:22.252Z,19.10
2018-04-16T05:01:22.284Z,19.00
2018-04-16T05:02:22.322Z,19.10
2018-04-16T05:03:22.358Z,19.20
2018-04-16T05:04:22.395Z,19.29
2018-04-16T05:05:22.432Z,19.20
2018-04-16T05:06:22.464Z,19.29
2018-04-16T05:07:22.499Z,19.10
2018-04-16T05:08:22.539Z,19.10
2018-04-16T05:09:23.109Z,19.48
2018-04-16T05:10:22.605Z,19.87
2018-04-16T05:11:22.643Z,19.58
2018-04-16T05:12:22.677Z,19.58
2018-04-16T05:13:22.719Z,19.48
2018-04-16T05:14:22.749Z,19.96
2018-04-16T05:15:22.785Z,19.87
2018-04-16T05:16:22.819Z,19.87
2018-04-16T05:17:22.855Z,19.77
2018-04-16T05:18:22.893Z,19.77
2018-04-16T05:19:22.926Z,19.68
2018-04-16T05:20:22.962Z,19.68
2018-04-16T05:21:22.999Z,19.96
2018-04-16T05:22:23.033Z,19.58
2018-04-16T05:23:23.073Z,19.77
2018-04-16T05:24:23.117Z,19.68
2018-04-16T05:25:23.139Z,19.96
2018-04-16T05:26:23.177Z,19.68
2018-04-16T05:27:23.212Z,19.96
2018-04-16T05:28:23.249Z,19.77
2018-04-16T05:29:23.281Z,19.96
2018-04-16T05:30:23.320Z,19.68
2018-04-16T05:31:23.353Z,19.77
2018-04-16T05:32:23.389Z,19.87
2018-04-16T05:33:23.427Z,19.77
2018-04-16T05:34:23.468Z,19.87
2018-04-16T05:35:23.504Z,19.96
2018-04-16T05:36:23.533Z,20.25
2018-04-16T05:37:23.567Z,19.96
2018-04-16T05:38:23.602Z,20.25
2018-04-16T05:39:23.639Z,19.96
2018-04-16T05:40:23.682Z,19.87
2018-04-16T05:41:23.721Z,20.06
2018-04-16T05:42:23.795Z,20.06
2018-04-16T05:43:23.783Z,20.06
2018-04-16T05:44:23.815Z,19.77
2018-04-16T05:45:23.854Z,19.77
2018-04-16T05:46:23.890Z,20.16
2018-04-16T05:47:23.929Z,20.35
2018-04-16T05:48:23.962Z,20.16
2018-04-16T05:49:23.996Z,19.96
2018-04-16T05:50:24.028Z,20.25
2018-04-16T05:51:24.070Z,20.25
2018-04-16T05:52:24.103Z,20.35
2018-04-16T05:53:24.153Z,20.25
2018-04-16T05:54:24.173Z,20.06
2018-04-16T05:55:24.626Z,19.96
2018-04-16T05:56:24.260Z,20.06
2018-04-16T05:57:24.286Z,20.06
2018-04-16T05:58:24.318Z,20.25
2018-04-16T05:59:24.355Z,20.06
2018-04-16T06:00:24.394Z,20.16
2018-04-16T06:01:25.132Z,20.35
2018-04-16T06:02:24.463Z,20.25
2018-04-16T06:03:24.500Z,20.25
2018-04-16T06:04:24.531Z,20.35
2018-04-16T06:05:24.590Z,20.25
2018-04-16T06:06:25.134Z,20.35
2018-04-16T06:07:24.638Z,20.25
2018-04-16T06:08:24.680Z,20.25
2018-04-16T06:09:25.453Z,20.64
2018-04-16T06:10:24.742Z,20.16
2018-04-16T06:11:24.779Z,20.25
2018-04-16T06:12:24.824Z,20.16
2018-04-16T06:13:24.857Z,20.25
2018-04-16T06:14:24.890Z,19.96
2018-04-16T06:15:24.923Z,19.96
2018-04-16T06:16:24.961Z,19.96
2018-04-16T06:17:25.005Z,20.45
2018-04-16T06:18:25.030Z,20.64
2018-04-16T06:19:25.066Z,20.25
2018-04-16T06:20:25.104Z,20.54
2018-04-16T06:21:25.136Z,20.64
2018-04-16T06:22:25.176Z,20.35
2018-04-16T06:23:25.211Z,20.54
2018-04-16T06:24:25.244Z,20.54
2018-04-16T06:25:25.283Z,20.54
2018-04-16T06:26:25.318Z,20.64
2018-04-16T06:27:25.369Z,20.54
2018-04-16T06:28:25.389Z,20.83
2018-04-16T06:29:25.429Z,20.54
2018-04-16T06:30:25.458Z,20.64
2018-04-16T06:31:25.496Z,20.74
2018-04-16T06:32:25.533Z,20.64
2018-04-16T06:33:25.566Z,20.54
2018-04-16T06:34:25.602Z,20.74
2018-04-16T06:35:25.639Z,20.74
2018-04-16T06:36:25.671Z,20.54
2018-04-16T06:37:25.708Z,20.74
2018-04-16T06:38:25.746Z,20.74
2018-04-16T06:39:25.778Z,20.64
2018-04-16T06:40:25.815Z,20.83
2018-04-16T06:41:25.849Z,20.83
2018-04-16T06:42:25.926Z,20.64
2018-04-16T06:43:25.922Z,20.54
2018-04-16T06:44:25.956Z,20.93
2018-04-16T06:45:25.996Z,20.54
2018-04-16T06:46:26.073Z,20.64
2018-04-16T06:47:26.067Z,20.93
2018-04-16T06:49:56.721Z,20.64
2018-04-16T06:50:56.736Z,20.93
